createdAt,value
2023-04-29T00:02:30.442Z,6.43
2023-04-29T00:05:00.810Z,6.80
2023-04-29T00:07:29.507Z,6.80
2023-04-29T00:09:58.479Z,6.90
2023-04-29T00:12:28.073Z,6.87
2023-04-29T00:14:56.472Z,7.23
2023-04-29T00:17:26.347Z,6.90
2023-04-29T00:19:55.128Z,7.43
2023-04-29T00:22:23.833Z,7.37
2023-04-29T00:24:53.148Z,7.83
2023-04-29T00:27:21.545Z,7.47
2023-04-29T00:29:49.887Z,7.50
2023-04-29T00:32:18.456Z,8.30
2023-04-29T00:34:48.460Z,8.40
2023-04-29T00:37:17.213Z,7.70
2023-04-29T00:39:45.633Z,8.57
2023-04-29T00:42:14.200Z,8.37
2023-04-29T00:44:42.525Z,9.37
2023-04-29T00:47:11.885Z,9.40
2023-04-29T00:49:41.062Z,7.80
2023-04-29T00:52:14.007Z,9.43
2023-04-29T00:54:43.255Z,8.40
2023-04-29T00:57:12.213Z,8.70
2023-04-29T00:59:41.147Z,8.53
2023-04-29T01:02:09.922Z,8.53
2023-04-29T01:04:38.523Z,8.33
2023-04-29T01:07:17.063Z,9.77
2023-04-29T01:10:03.910Z,8.13
2023-04-29T01:12:40.759Z,10.43
2023-04-29T01:15:19.749Z,10.80
2023-04-29T01:17:57.571Z,9.90
2023-04-29T01:20:27.215Z,8.90
2023-04-29T01:22:57.059Z,9.90
2023-04-29T01:25:28.170Z,13.03
2023-04-29T01:28:44.669Z,9.70
2023-04-29T01:31:21.222Z,11.57
2023-04-29T01:34:09.821Z,12.90
2023-04-29T01:36:50.171Z,13.53
2023-04-29T01:39:32.919Z,14.07
2023-04-29T01:42:22.397Z,16.57
2023-04-29T01:44:52.732Z,14.83
2023-04-29T01:47:23.659Z,14.30
2023-04-29T01:49:55.214Z,13.50
2023-04-29T01:52:24.341Z,14.03
2023-04-29T01:54:57.154Z,15.27
2023-04-29T01:57:28.674Z,17.03
2023-04-29T02:00:13.369Z,13.93
2023-04-29T02:02:42.024Z,14.93
2023-04-29T02:05:21.524Z,12.23
2023-04-29T02:07:56.597Z,16.23
2023-04-29T02:10:25.102Z,15.43
2023-04-29T02:13:04.653Z,17.20
2023-04-29T02:15:33.111Z,17.43
2023-04-29T02:18:01.804Z,17.70
2023-04-29T02:20:30.396Z,19.70
2023-04-29T02:22:58.980Z,17.30
2023-04-29T02:25:27.391Z,16.77
2023-04-29T02:27:55.672Z,19.53
2023-04-29T02:30:25.575Z,21.33
2023-04-29T02:32:54.525Z,19.27
2023-04-29T02:35:23.047Z,19.33
2023-04-29T02:37:51.450Z,18.53
2023-04-29T02:40:20.237Z,18.20
2023-04-29T02:42:48.610Z,16.67
2023-04-29T02:45:17.464Z,16.70
2023-04-29T02:47:47.780Z,18.53
2023-04-29T02:50:16.755Z,15.47
2023-04-29T02:52:45.193Z,15.67
2023-04-29T02:55:13.854Z,16.10
2023-04-29T02:57:43.234Z,14.40
2023-04-29T03:00:13.005Z,15.10
2023-04-29T03:02:41.750Z,14.60
2023-04-29T03:05:12.114Z,14.73
2023-04-29T03:07:40.497Z,12.77
2023-04-29T03:10:11.594Z,14.57
2023-04-29T03:12:41.014Z,15.87
2023-04-29T03:15:10.751Z,12.43
2023-04-29T03:17:39.624Z,12.77
2023-04-29T03:20:12.045Z,12.40
2023-04-29T03:22:41.004Z,13.57
2023-04-29T03:25:10.972Z,12.43
2023-04-29T03:27:41.898Z,10.43
2023-04-29T03:30:12.278Z,12.77
2023-04-29T03:32:48.222Z,12.47
2023-04-29T03:35:18.108Z,11.33
2023-04-29T03:38:09.697Z,9.23
2023-04-29T03:40:39.924Z,10.03
2023-04-29T03:43:09.212Z,10.27
2023-04-29T03:45:38.175Z,10.13
2023-04-29T03:48:08.387Z,8.87
2023-04-29T03:50:38.904Z,9.03
2023-04-29T03:53:08.316Z,9.17
2023-04-29T03:55:36.811Z,8.40
2023-04-29T03:58:05.590Z,9.97
2023-04-29T04:00:34.766Z,8.77
2023-04-29T04:03:06.929Z,8.60
2023-04-29T04:05:38.731Z,11.10
2023-04-29T04:08:11.277Z,9.17
2023-04-29T04:10:48.633Z,7.03
2023-04-29T04:13:31.536Z,7.93
2023-04-29T04:16:00.201Z,7.00
2023-04-29T04:18:28.736Z,9.33
2023-04-29T04:20:59.578Z,7.80
2023-04-29T04:23:28.272Z,8.13
2023-04-29T04:25:58.255Z,6.33
2023-04-29T04:28:53.125Z,8.13
2023-04-29T04:31:31.244Z,7.23
2023-04-29T04:34:00.632Z,8.20
2023-04-29T04:36:34.248Z,7.07
2023-04-29T04:39:02.638Z,6.87
2023-04-29T04:41:32.313Z,7.57
2023-04-29T04:44:02.211Z,7.50
2023-04-29T04:46:43.859Z,7.47
2023-04-29T04:49:19.337Z,6.70
2023-04-29T04:51:53.751Z,6.67
2023-04-29T04:54:22.300Z,7.40
2023-04-29T04:56:54.572Z,6.80
2023-04-29T04:59:23.191Z,7.70
2023-04-29T05:01:51.662Z,6.40
2023-04-29T05:04:20.679Z,6.60
2023-04-29T05:06:49.475Z,7.10
2023-04-29T05:09:21.972Z,6.80
2023-04-29T05:11:50.352Z,6.47
2023-04-29T05:14:20.187Z,6.60
2023-04-29T05:16:48.650Z,7.80
2023-04-29T05:19:17.063Z,7.20
2023-04-29T05:21:46.799Z,6.93
2023-04-29T05:24:15.275Z,7.70
2023-04-29T05:26:45.190Z,7.90
2023-04-29T05:29:13.674Z,6.60
2023-04-29T05:31:52.245Z,6.80
2023-04-29T05:34:21.353Z,6.33
2023-04-29T05:36:49.724Z,7.53
2023-04-29T05:39:18.845Z,7.13
2023-04-29T05:41:52.976Z,7.63
2023-04-29T05:44:34.795Z,7.23
2023-04-29T05:47:03.407Z,8.77
2023-04-29T05:49:32.113Z,7.43
2023-04-29T05:52:04.191Z,8.03
2023-04-29T05:54:33.515Z,7.17
2023-04-29T05:57:04.166Z,6.83
2023-04-29T05:59:33.114Z,7.13
2023-04-29T06:02:05.938Z,7.17
2023-04-29T06:04:36.417Z,8.20
2023-04-29T06:07:22.592Z,6.43
2023-04-29T06:09:57.062Z,8.50
2023-04-29T06:12:28.998Z,6.90
2023-04-29T06:14:59.815Z,6.53
2023-04-29T06:17:29.456Z,6.90
2023-04-29T06:19:57.931Z,7.87
2023-04-29T06:22:26.680Z,7.37
2023-04-29T06:24:59.510Z,8.30
2023-04-29T06:27:39.145Z,7.37
2023-04-29T06:30:09.569Z,7.07
2023-04-29T06:32:39.908Z,6.67
2023-04-29T06:35:09.781Z,7.27
2023-04-29T06:37:58.379Z,7.27
2023-04-29T06:40:36.026Z,6.87
2023-04-29T06:43:05.869Z,7.10
2023-04-29T06:45:37.057Z,7.90
2023-04-29T06:48:10.924Z,7.83
2023-04-29T06:50:54.390Z,7.33
2023-04-29T06:53:24.538Z,7.47
2023-04-29T06:55:53.308Z,7.90
2023-04-29T06:58:23.905Z,7.80
2023-04-29T07:00:52.737Z,7.93
2023-04-29T07:03:24.138Z,6.93
2023-04-29T07:05:52.676Z,8.00
2023-04-29T07:08:21.140Z,7.47
2023-04-29T07:10:56.541Z,7.00
2023-04-29T07:13:27.199Z,7.50
2023-04-29T07:15:55.699Z,7.47
2023-04-29T07:18:24.058Z,8.33
2023-04-29T07:20:53.022Z,7.60
2023-04-29T07:23:22.008Z,10.00
2023-04-29T07:25:50.457Z,8.17
2023-04-29T07:28:18.928Z,8.40
2023-04-29T07:30:49.269Z,8.53
2023-04-29T07:33:18.034Z,7.83
2023-04-29T07:35:47.355Z,8.83
2023-04-29T07:38:16.470Z,7.23
2023-04-29T07:40:45.056Z,7.87
2023-04-29T07:43:13.773Z,7.53
2023-04-29T07:45:42.169Z,7.83
2023-04-29T07:48:12.058Z,7.40
2023-04-29T07:50:40.441Z,7.23
2023-04-29T07:53:08.833Z,7.30
2023-04-29T07:55:38.930Z,9.33
2023-04-29T07:58:08.142Z,8.13
2023-04-29T08:00:36.805Z,8.37
2023-04-29T08:03:05.378Z,7.13
2023-04-29T08:05:36.620Z,6.80
2023-04-29T08:08:05.655Z,8.57
2023-04-29T08:10:36.677Z,8.80
2023-04-29T08:13:05.395Z,10.30
2023-04-29T08:15:33.966Z,9.13
2023-04-29T08:18:02.356Z,8.43
2023-04-29T08:20:30.720Z,9.43
2023-04-29T08:23:02.100Z,9.10
2023-04-29T08:25:30.685Z,9.60
2023-04-29T08:27:59.417Z,10.00
2023-04-29T08:30:28.441Z,9.20
2023-04-29T08:32:56.833Z,9.10
2023-04-29T08:35:25.413Z,9.00
2023-04-29T08:37:55.340Z,9.27
2023-04-29T08:40:25.232Z,10.97
2023-04-29T08:42:56.005Z,8.63
2023-04-29T08:45:26.509Z,9.77
2023-04-29T08:47:57.490Z,9.20
2023-04-29T08:50:26.148Z,10.87
2023-04-29T08:52:54.497Z,11.47
2023-04-29T08:55:24.942Z,11.93
2023-04-29T08:57:56.862Z,12.10
2023-04-29T09:00:26.308Z,10.97
2023-04-29T09:02:58.138Z,11.60
2023-04-29T09:05:27.672Z,10.63
2023-04-29T09:07:59.702Z,12.23
2023-04-29T09:10:29.810Z,10.60
2023-04-29T09:12:58.700Z,13.97
2023-04-29T09:15:27.087Z,13.90
2023-04-29T09:17:55.707Z,10.00
2023-04-29T09:20:31.605Z,10.83
2023-04-29T09:23:03.611Z,12.27
2023-04-29T09:25:34.503Z,11.87
2023-04-29T09:28:17.501Z,11.40
2023-04-29T09:30:50.828Z,13.17
2023-04-29T09:33:19.203Z,12.57
2023-04-29T09:35:48.746Z,14.50
2023-04-29T09:38:18.747Z,11.90
2023-04-29T09:40:58.783Z,14.37
2023-04-29T09:43:28.528Z,13.40
2023-04-29T09:45:56.970Z,13.83
2023-04-29T09:48:35.509Z,11.70
2023-04-29T09:51:04.481Z,13.33
2023-04-29T09:53:33.405Z,12.03
2023-04-29T09:56:05.333Z,11.47
2023-04-29T09:58:37.669Z,12.30
2023-04-29T10:01:07.787Z,12.53
2023-04-29T10:03:39.259Z,12.37
2023-04-29T10:06:09.192Z,13.40
2023-04-29T10:08:37.710Z,11.17
2023-04-29T10:11:07.649Z,11.20
2023-04-29T10:13:38.819Z,11.37
2023-04-29T10:16:19.178Z,11.97
2023-04-29T10:18:55.217Z,11.63
2023-04-29T10:21:30.004Z,12.93
2023-04-29T10:24:00.042Z,10.67
2023-04-29T10:26:32.077Z,10.30
2023-04-29T10:29:02.181Z,12.63
2023-04-29T10:31:31.241Z,12.43
2023-04-29T10:34:01.684Z,11.43
2023-04-29T10:36:32.085Z,11.40
2023-04-29T10:39:06.045Z,10.93
2023-04-29T10:41:45.819Z,11.17
2023-04-29T10:44:14.658Z,11.50
2023-04-29T10:46:43.010Z,10.23
2023-04-29T10:49:12.429Z,11.20
2023-04-29T10:51:43.793Z,11.10
2023-04-29T10:54:15.309Z,10.17
2023-04-29T10:56:50.007Z,11.30
2023-04-29T10:59:22.866Z,11.77
2023-04-29T11:01:52.427Z,9.63
2023-04-29T11:04:22.233Z,12.87
2023-04-29T11:06:54.852Z,11.50
2023-04-29T11:09:27.868Z,10.07
2023-04-29T11:12:03.148Z,10.27
2023-04-29T11:14:37.882Z,9.73
2023-04-29T11:17:09.953Z,8.33
2023-04-29T11:19:44.986Z,9.17
2023-04-29T11:22:26.231Z,8.13
2023-04-29T11:24:57.088Z,7.97
2023-04-29T11:27:31.859Z,9.30
2023-04-29T11:30:05.497Z,9.10
2023-04-29T11:32:35.964Z,8.60
2023-04-29T11:35:12.163Z,9.70
2023-04-29T11:37:42.146Z,8.53
2023-04-29T11:40:13.142Z,8.27
2023-04-29T11:42:46.963Z,8.03
2023-04-29T11:45:16.123Z,7.53
2023-04-29T11:47:46.500Z,8.60
2023-04-29T11:50:19.990Z,9.00
2023-04-29T11:52:50.446Z,7.60
2023-04-29T11:55:19.745Z,9.33
2023-04-29T11:57:52.450Z,7.83
2023-04-29T12:00:21.543Z,7.57
2023-04-29T12:02:50.209Z,7.17
2023-04-29T12:05:19.521Z,6.93
2023-04-29T12:07:50.720Z,6.87
2023-04-29T12:10:19.305Z,7.57
2023-04-29T12:12:49.655Z,7.33
2023-04-29T12:15:18.322Z,7.40
2023-04-29T12:17:47.467Z,7.37
2023-04-29T12:20:16.383Z,7.10
2023-04-29T12:22:45.057Z,7.57
2023-04-29T12:25:14.957Z,7.33
2023-04-29T12:27:43.760Z,7.37
2023-04-29T12:30:14.365Z,6.33
2023-04-29T12:32:42.778Z,6.97
2023-04-29T12:35:17.865Z,6.37
2023-04-29T12:37:50.847Z,6.60
2023-04-29T12:40:20.807Z,6.77
2023-04-29T12:42:49.977Z,6.87
2023-04-29T12:45:32.366Z,6.23
2023-04-29T12:48:03.213Z,6.07
2023-04-29T12:50:35.490Z,5.97
2023-04-29T12:53:04.947Z,6.10
2023-04-29T12:55:35.504Z,6.00
2023-04-29T12:58:04.639Z,6.53
2023-04-29T13:00:37.394Z,5.77
2023-04-29T13:03:06.390Z,6.07
2023-04-29T13:05:35.085Z,6.27
2023-04-29T13:08:05.657Z,6.90
2023-04-29T13:10:34.455Z,6.03
2023-04-29T13:13:02.843Z,5.80
2023-04-29T13:15:33.085Z,7.13
2023-04-29T13:18:03.145Z,4.93
2023-04-29T13:20:32.513Z,5.67
2023-04-29T13:23:01.001Z,5.07
2023-04-29T13:25:29.370Z,4.77
2023-04-29T13:27:57.814Z,5.27
2023-04-29T13:30:26.365Z,4.77
2023-04-29T13:32:58.738Z,5.57
2023-04-29T13:35:35.948Z,4.57
2023-04-29T13:38:04.347Z,5.03
2023-04-29T13:40:38.215Z,4.90
2023-04-29T13:43:09.506Z,6.70
2023-04-29T13:45:41.592Z,5.40
2023-04-29T13:48:22.893Z,4.93
2023-04-29T13:54:17.403Z,4.50
2023-04-29T13:59:36.165Z,4.13
2023-04-29T14:02:15.009Z,3.77
2023-04-29T14:04:30.735Z,3.73
2023-04-29T14:07:00.845Z,4.07
2023-04-29T14:09:29.336Z,4.57
2023-04-29T14:11:57.699Z,3.90
2023-04-29T14:14:26.205Z,4.17
2023-04-29T14:16:54.703Z,4.80
2023-04-29T14:19:23.052Z,4.17
2023-04-29T14:21:51.989Z,3.97
2023-04-29T14:24:22.682Z,4.30
2023-04-29T14:26:52.262Z,4.50
2023-04-29T14:29:20.701Z,3.60
2023-04-29T14:31:49.159Z,3.40
2023-04-29T14:34:19.415Z,3.80
2023-04-29T14:36:48.095Z,3.67
2023-04-29T14:39:16.523Z,3.67
2023-04-29T14:41:46.829Z,4.17
2023-04-29T14:44:15.489Z,3.80
2023-04-29T14:46:44.119Z,5.03
2023-04-29T14:49:12.859Z,3.63
2023-04-29T14:51:41.237Z,3.50
2023-04-29T14:54:11.225Z,3.80
2023-04-29T14:56:39.698Z,4.23
2023-04-29T14:59:09.514Z,3.13
2023-04-29T15:01:39.788Z,3.17
2023-04-29T15:04:08.256Z,3.73
2023-04-29T15:06:36.969Z,3.97
2023-04-29T15:09:06.061Z,3.80
2023-04-29T15:11:34.469Z,3.60
2023-04-29T15:14:02.853Z,3.33
2023-04-29T15:16:33.180Z,3.80
2023-04-29T15:19:01.840Z,3.87
2023-04-29T15:21:30.261Z,6.30
2023-04-29T15:23:58.581Z,5.40
2023-04-29T15:26:28.607Z,4.67
2023-04-29T15:28:57.035Z,3.77
2023-04-29T15:31:26.195Z,3.60
2023-04-29T15:33:57.019Z,3.60
2023-04-29T15:36:30.947Z,3.67
2023-04-29T15:38:59.589Z,3.73
2023-04-29T15:41:28.284Z,3.67
2023-04-29T15:43:58.480Z,3.50
2023-04-29T15:46:28.452Z,3.87
2023-04-29T15:48:58.272Z,3.27
2023-04-29T15:51:26.636Z,3.50
2023-04-29T15:53:55.124Z,3.27
2023-04-29T15:56:23.858Z,3.57
2023-04-29T15:58:52.648Z,3.80
2023-04-29T16:01:21.258Z,3.40
2023-04-29T16:03:50.004Z,3.43
2023-04-29T16:06:20.767Z,3.87
2023-04-29T16:08:50.213Z,3.33
2023-04-29T16:11:18.920Z,3.20
2023-04-29T16:13:47.427Z,4.73
2023-04-29T16:16:15.990Z,3.30
2023-04-29T16:18:44.414Z,3.30
2023-04-29T16:21:13.614Z,3.50
2023-04-29T16:23:43.659Z,2.77
2023-04-29T16:26:12.482Z,2.53
2023-04-29T16:28:40.830Z,3.17
2023-04-29T16:31:09.240Z,2.97
2023-04-29T16:33:37.892Z,4.17
2023-04-29T16:36:07.128Z,3.27
2023-04-29T16:38:35.823Z,2.70
2023-04-29T16:41:06.620Z,3.03
2023-04-29T16:43:35.291Z,3.20
2023-04-29T16:46:03.847Z,3.33
2023-04-29T16:48:32.239Z,3.00
2023-04-29T16:51:01.365Z,3.33
2023-04-29T16:53:30.049Z,3.23
2023-04-29T16:55:58.785Z,2.77
2023-04-29T16:58:28.909Z,3.07
2023-04-29T17:00:57.741Z,2.73
2023-04-29T17:03:26.310Z,3.00
2023-04-29T17:05:57.837Z,5.27
2023-04-29T17:08:26.234Z,3.27
2023-04-29T17:10:54.720Z,3.40
2023-04-29T17:13:23.727Z,2.40
2023-04-29T17:15:53.541Z,2.27
2023-04-29T17:18:22.067Z,2.63
2023-04-29T17:20:51.195Z,3.20
2023-04-29T17:23:19.772Z,2.27
2023-04-29T17:25:48.197Z,3.03
2023-04-29T17:28:16.941Z,2.97
2023-04-29T17:30:45.264Z,2.80
2023-04-29T17:33:17.397Z,2.73
2023-04-29T17:35:46.236Z,3.00
2023-04-29T17:38:14.812Z,2.37
2023-04-29T17:40:43.188Z,3.10
2023-04-29T17:43:11.767Z,2.97
2023-04-29T17:45:41.963Z,2.73
2023-04-29T17:48:10.433Z,3.00
2023-04-29T17:50:41.062Z,2.50
2023-04-29T17:53:09.453Z,2.57
2023-04-29T17:55:40.100Z,2.63
2023-04-29T17:58:08.591Z,4.17
2023-04-29T18:00:37.332Z,2.87
2023-04-29T18:03:07.200Z,2.77
2023-04-29T18:05:35.631Z,3.03
2023-04-29T18:08:06.025Z,2.60
2023-04-29T18:10:34.431Z,2.63
2023-04-29T18:13:03.430Z,2.77
2023-04-29T18:15:31.952Z,2.80
2023-04-29T18:18:00.508Z,3.70
2023-04-29T18:20:28.911Z,2.20
2023-04-29T18:22:57.246Z,2.83
2023-04-29T18:25:27.143Z,2.60
2023-04-29T18:28:07.779Z,3.17
2023-04-29T18:30:46.103Z,2.73
2023-04-29T18:33:15.464Z,3.07
2023-04-29T18:35:44.025Z,2.57
2023-04-29T18:38:16.238Z,2.40
2023-04-29T18:40:46.340Z,2.73
2023-04-29T18:43:18.058Z,2.03
2023-04-29T18:45:46.746Z,2.53
2023-04-29T18:48:15.266Z,2.87
2023-04-29T18:50:44.506Z,3.47
2023-04-29T18:53:13.487Z,3.40
2023-04-29T18:55:42.150Z,2.83
2023-04-29T18:58:12.059Z,2.40
2023-04-29T19:00:40.972Z,2.47
2023-04-29T19:03:09.850Z,3.03
2023-04-29T19:05:38.439Z,2.40
2023-04-29T19:08:08.239Z,2.73
2023-04-29T19:10:36.583Z,2.63
2023-04-29T19:13:05.773Z,2.87
2023-04-29T19:15:36.078Z,3.47
2023-04-29T19:18:04.978Z,3.17
2023-04-29T19:20:33.852Z,3.30
2023-04-29T19:23:02.336Z,2.97
2023-04-29T19:25:31.972Z,3.10
2023-04-29T19:28:00.467Z,3.20
2023-04-29T19:30:29.014Z,3.47
2023-04-29T19:32:58.832Z,3.67
2023-04-29T19:35:27.798Z,3.07
2023-04-29T19:37:56.479Z,3.60
2023-04-29T19:40:24.908Z,3.57
2023-04-29T19:42:53.747Z,3.60
2023-04-29T19:45:22.258Z,5.43
2023-04-29T19:47:50.886Z,3.73
2023-04-29T19:50:21.344Z,3.77
2023-04-29T19:52:50.309Z,4.00
2023-04-29T19:55:18.914Z,3.87
2023-04-29T19:57:47.325Z,3.50
2023-04-29T20:00:17.371Z,3.20
2023-04-29T20:02:48.563Z,4.53
2023-04-29T20:05:16.967Z,3.40
2023-04-29T20:07:49.840Z,3.10
2023-04-29T20:10:18.242Z,3.43
2023-04-29T20:12:46.702Z,5.63
2023-04-29T20:15:15.031Z,3.03
2023-04-29T20:17:43.681Z,4.40
2023-04-29T20:20:12.828Z,3.60
2023-04-29T20:22:41.258Z,3.47
2023-04-29T20:25:12.698Z,2.93
2023-04-29T20:27:41.414Z,3.37
2023-04-29T20:30:10.969Z,2.83
2023-04-29T20:32:39.542Z,2.70
2023-04-29T20:35:09.344Z,2.50
2023-04-29T20:37:38.286Z,3.90
2023-04-29T20:40:09.844Z,2.53
2023-04-29T20:42:39.878Z,2.70
2023-04-29T20:45:10.609Z,2.77
2023-04-29T20:47:39.667Z,2.80
2023-04-29T20:50:09.581Z,3.50
2023-04-29T20:52:38.589Z,2.50
2023-04-29T20:55:08.173Z,3.40
2023-04-29T20:57:37.358Z,4.03
2023-04-29T21:00:09.654Z,3.30
2023-04-29T21:02:38.632Z,2.67
2023-04-29T21:05:09.906Z,3.53
2023-04-29T21:07:38.629Z,2.30
2023-04-29T21:10:07.955Z,2.03
2023-04-29T21:12:36.799Z,3.67
2023-04-29T21:15:08.867Z,2.43
2023-04-29T21:17:37.523Z,3.07
2023-04-29T21:20:08.800Z,2.50
2023-04-29T21:22:37.249Z,2.33
2023-04-29T21:25:06.430Z,2.57
2023-04-29T21:27:37.433Z,2.40
2023-04-29T21:30:09.477Z,3.73
2023-04-29T21:32:38.146Z,3.57
2023-04-29T21:35:07.929Z,4.30
2023-04-29T21:37:36.340Z,3.90
2023-04-29T21:40:05.508Z,4.20
2023-04-29T21:42:34.780Z,3.80
2023-04-29T21:45:03.871Z,4.63
2023-04-29T21:47:33.955Z,3.53
2023-04-29T21:50:03.131Z,3.40
2023-04-29T21:52:34.991Z,4.33
2023-04-29T21:55:03.773Z,3.53
2023-04-29T21:57:43.704Z,3.63
2023-04-29T22:00:33.486Z,3.40
2023-04-29T22:03:04.657Z,3.03
2023-04-29T22:05:33.572Z,2.33
2023-04-29T22:08:03.116Z,2.83
2023-04-29T22:10:32.114Z,2.93
2023-04-29T22:13:00.932Z,2.60
2023-04-29T22:15:29.993Z,4.40
2023-04-29T22:17:59.145Z,4.00
2023-04-29T22:20:29.319Z,6.57
2023-04-29T22:22:58.072Z,6.03
2023-04-29T22:25:27.047Z,5.40
2023-04-29T22:27:56.105Z,4.10
2023-04-29T22:30:24.875Z,3.37
2023-04-29T22:32:53.829Z,3.30
2023-04-29T22:35:23.194Z,4.53
2023-04-29T22:37:54.136Z,2.87
2023-04-29T22:40:22.866Z,2.97
2023-04-29T22:42:51.657Z,3.77
2023-04-29T22:45:20.408Z,3.97
2023-04-29T22:47:49.155Z,4.00
2023-04-29T22:50:18.366Z,4.40
2023-04-29T22:52:47.287Z,4.70
2023-04-29T22:55:17.512Z,3.60
2023-04-29T22:57:46.049Z,5.50
2023-04-29T23:00:15.836Z,4.37
2023-04-29T23:02:45.473Z,4.57
2023-04-29T23:05:14.380Z,5.60
2023-04-29T23:07:42.958Z,4.00
2023-04-29T23:10:12.407Z,3.47
2023-04-29T23:12:42.364Z,5.87
2023-04-29T23:15:11.069Z,5.20
2023-04-29T23:17:39.942Z,4.53
2023-04-29T23:20:10.204Z,3.83
2023-04-29T23:22:38.961Z,3.23
2023-04-29T23:25:08.537Z,3.20
2023-04-29T23:27:37.852Z,3.30
2023-04-29T23:30:10.425Z,2.30
2023-04-29T23:32:39.579Z,2.60
2023-04-29T23:35:11.509Z,2.23
2023-04-29T23:37:42.632Z,2.80
2023-04-29T23:40:12.260Z,3.23
2023-04-29T23:42:40.782Z,2.67
2023-04-29T23:45:11.764Z,3.03
2023-04-29T23:47:40.480Z,2.30
2023-04-29T23:50:10.572Z,4.00
2023-04-29T23:52:39.297Z,3.13
2023-04-29T23:55:10.125Z,2.60
2023-04-29T23:57:39.049Z,2.93
